Time;durP1;ratioP1;P1;durP2;ratioP2;P2;SDS_P1;SDS_P2;PMS_P1;PMS_P2;Temp;Humidity;BMP_temperature;BMP_pressure;BME280_temperature;BME280_humidity;BME280_pressure;Samples;Min_cycle;Max_cycle;Signal;HPM_P1;HPM_P2
2021/05/15 00:01:30;;;;;;;19.92;17.85;;;;;;;;;;5074146;28;20202;-73
2021/05/15 00:03:57;;;;;;;18.45;16.42;;;;;;;;;;5073565;28;20666;-72
2021/05/15 00:06:24;;;;;;;23.03;17.37;;;;;;;;;;5074000;28;20338;-74
2021/05/15 00:08:51;;;;;;;20.23;17.90;;;;;;;;;;5073914;28;20973;-77
2021/05/15 00:11:17;;;;;;;21.80;17.37;;;;;;;;;;5074344;28;20475;-75
2021/05/15 00:13:44;;;;;;;19.63;17.52;;;;;;;;;;5074186;28;20447;-74
2021/05/15 00:16:12;;;;;;;19.02;17.17;;;;;;;;;;5073791;28;20198;-75
2021/05/15 00:18:39;;;;;;;21.13;18.75;;;;;;;;;;5074360;28;20201;-75
2021/05/15 00:21:06;;;;;;;21.97;19.67;;;;;;;;;;5074853;28;20558;-74
2021/05/15 00:23:32;;;;;;;22.13;18.90;;;;;;;;;;5073938;28;20493;-73
2021/05/15 00:26:00;;;;;;;24.48;19.67;;;;;;;;;;5073733;28;20482;-74
2021/05/15 00:28:26;;;;;;;22.60;19.20;;;;;;;;;;5073526;28;20197;-74
2021/05/15 00:30:53;;;;;;;22.80;18.43;;;;;;;;;;5073638;28;20283;-73
2021/05/15 00:33:21;;;;;;;23.83;20.50;;;;;;;;;;5073880;28;20807;-73
2021/05/15 00:35:47;;;;;;;25.85;20.92;;;;;;;;;;5073575;28;20439;-73
2021/05/15 00:38:14;;;;;;;24.08;21.35;;;;;;;;;;5073804;28;20212;-74
2021/05/15 00:40:41;;;;;;;24.07;21.43;;;;;;;;;;5073426;28;20194;-74
2021/05/15 00:43:08;;;;;;;26.27;22.90;;;;;;;;;;5073566;28;20515;-73
2021/05/15 00:45:35;;;;;;;26.37;19.60;;;;;;;;;;5073362;28;20835;-74
2021/05/15 00:48:03;;;;;;;26.00;23.00;;;;;;;;;;5073683;28;20442;-74
2021/05/15 00:50:30;;;;;;;25.73;21.37;;;;;;;;;;5074118;28;20456;-74
2021/05/15 00:52:57;;;;;;;25.30;20.57;;;;;;;;;;5074217;28;20838;-74
2021/05/15 00:55:25;;;;;;;26.70;23.70;;;;;;;;;;5073629;28;20605;-74
2021/05/15 00:57:54;;;;;;;24.07;21.27;;;;;;;;;;5073603;28;20523;-74
2021/05/15 01:00:21;;;;;;;27.93;23.03;;;;;;;;;;5073227;28;20441;-74
2021/05/15 01:02:48;;;;;;;28.03;22.53;;;;;;;;;;5073546;28;20531;-74
2021/05/15 01:05:15;;;;;;;25.43;22.10;;;;;;;;;;5073183;28;20450;-74
2021/05/15 01:07:45;;;;;;;26.53;22.30;;;;;;;;;;5073385;28;20502;-74
2021/05/15 01:10:12;;;;;;;26.17;23.37;;;;;;;;;;5073390;28;20452;-73
2021/05/15 01:12:45;;;;;;;27.17;24.37;;;;;;;;;;5073257;28;20519;-74
2021/05/15 01:15:12;;;;;;;26.37;23.10;;;;;;;;;;5075501;28;20439;-73
2021/05/15 01:17:39;;;;;;;31.00;23.57;;;;;;;;;;5077613;28;20531;-73
2021/05/15 01:20:06;;;;;;;25.50;22.80;;;;;;;;;;5077275;28;20451;-73
2021/05/15 01:22:34;;;;;;;25.20;21.80;;;;;;;;;;5077828;28;20523;-74
2021/05/15 01:25:00;;;;;;;25.17;22.58;;;;;;;;;;5077591;28;20201;-73
2021/05/15 01:27:27;;;;;;;28.38;24.30;;;;;;;;;;5077344;28;20290;-74
2021/05/15 01:29:54;;;;;;;28.27;24.33;;;;;;;;;;5076889;28;20252;-74
2021/05/15 01:32:20;;;;;;;27.70;24.73;;;;;;;;;;5077371;28;20473;-74
2021/05/15 01:34:47;;;;;;;25.57;22.87;;;;;;;;;;5077300;28;20195;-75
2021/05/15 01:37:14;;;;;;;27.92;22.63;;;;;;;;;;5076838;28;20440;-74
2021/05/15 01:39:41;;;;;;;29.93;23.03;;;;;;;;;;5077117;28;20197;-74
2021/05/15 01:42:08;;;;;;;28.47;24.97;;;;;;;;;;5077079;28;20443;-74
2021/05/15 01:44:34;;;;;;;29.77;25.10;;;;;;;;;;5076804;28;20448;-74
2021/05/15 01:47:01;;;;;;;28.63;25.63;;;;;;;;;;5077050;28;20603;-74
2021/05/15 01:49:28;;;;;;;25.80;23.00;;;;;;;;;;5077052;28;20504;-74
2021/05/15 01:51:55;;;;;;;29.83;25.40;;;;;;;;;;5076555;28;20692;-74
2021/05/15 01:54:21;;;;;;;27.97;23.77;;;;;;;;;;5077106;28;20440;-74
2021/05/15 01:56:49;;;;;;;26.63;23.95;;;;;;;;;;5076871;28;20447;-74
2021/05/15 01:59:16;;;;;;;29.27;26.27;;;;;;;;;;5076881;28;20343;-73
2021/05/15 02:01:42;;;;;;;26.85;24.20;;;;;;;;;;5076707;28;20550;-73
2021/05/15 02:04:09;;;;;;;30.23;25.07;;;;;;;;;;5076679;28;20225;-73
2021/05/15 02:06:36;;;;;;;30.93;25.67;;;;;;;;;;5076598;28;20454;-73
2021/05/15 02:09:03;;;;;;;27.93;24.93;;;;;;;;;;5076254;28;20447;-73
2021/05/15 02:11:29;;;;;;;29.30;26.35;;;;;;;;;;5076132;28;20587;-73
2021/05/15 02:13:57;;;;;;;28.20;25.37;;;;;;;;;;5076527;28;20199;-73
2021/05/15 02:16:24;;;;;;;29.10;24.87;;;;;;;;;;5076127;28;20434;-73
2021/05/15 02:18:50;;;;;;;27.43;23.33;;;;;;;;;;5076299;28;20795;-73
2021/05/15 02:21:17;;;;;;;27.83;24.80;;;;;;;;;;5077040;28;20453;-73
2021/05/15 02:23:44;;;;;;;29.48;26.38;;;;;;;;;;5076557;28;20237;-73
2021/05/15 02:26:11;;;;;;;27.83;24.70;;;;;;;;;;5075748;28;20597;-73
2021/05/15 02:28:37;;;;;;;28.07;25.03;;;;;;;;;;5075956;28;20534;-74
2021/05/15 02:31:05;;;;;;;29.30;23.07;;;;;;;;;;5075965;28;20686;-73
2021/05/15 02:33:32;;;;;;;26.67;22.57;;;;;;;;;;5075838;28;20444;-73
2021/05/15 02:35:58;;;;;;;27.00;24.23;;;;;;;;;;5076072;28;20444;-75
2021/05/15 02:38:25;;;;;;;25.75;23.08;;;;;;;;;;5076501;28;20338;-74
2021/05/15 02:40:54;;;;;;;26.10;23.27;;;;;;;;;;5076576;28;20291;-75
2021/05/15 02:43:21;;;;;;;27.85;23.33;;;;;;;;;;5075875;28;20208;-75
2021/05/15 02:45:48;;;;;;;30.35;24.73;;;;;;;;;;5075518;28;20194;-74
2021/05/15 02:48:17;;;;;;;25.20;22.50;;;;;;;;;;5074684;28;20284;-75
2021/05/15 02:50:44;;;;;;;29.73;24.42;;;;;;;;;;5075013;28;20205;-74
2021/05/15 02:53:11;;;;;;;26.70;22.47;;;;;;;;;;5074713;28;20684;-74
2021/05/15 02:55:37;;;;;;;23.67;21.20;;;;;;;;;;5074872;28;20443;-74
2021/05/15 02:58:04;;;;;;;26.38;23.23;;;;;;;;;;5075054;28;20191;-74
2021/05/15 03:00:31;;;;;;;25.92;23.20;;;;;;;;;;5074863;28;20223;-74
2021/05/15 03:02:58;;;;;;;27.20;23.98;;;;;;;;;;5074693;28;20193;-74
2021/05/15 03:05:26;;;;;;;25.58;22.65;;;;;;;;;;5074747;28;20192;-74
2021/05/15 03:07:53;;;;;;;25.90;22.73;;;;;;;;;;5074844;28;20220;-74
2021/05/15 03:10:23;;;;;;;24.70;22.10;;;;;;;;;;5071848;28;20193;-74
2021/05/15 03:12:49;;;;;;;28.30;23.75;;;;;;;;;;5075355;28;20217;-74
2021/05/15 03:15:26;;;;;;;26.60;21.98;;;;;;;;;;5076110;28;20285;-75
2021/05/15 03:17:54;;;;;;;28.73;23.02;;;;;;;;;;5075427;28;20593;-75
2021/05/15 03:20:22;;;;;;;24.43;21.83;;;;;;;;;;5075233;28;20257;-75
2021/05/15 03:22:50;;;;;;;22.40;20.05;;;;;;;;;;5075053;28;20509;-74
2021/05/15 03:25:17;;;;;;;22.50;20.20;;;;;;;;;;5075416;28;20605;-74
2021/05/15 03:27:44;;;;;;;24.80;22.10;;;;;;;;;;5074735;28;20447;-75
2021/05/15 03:30:12;;;;;;;23.17;20.67;;;;;;;;;;5074820;28;20536;-74
2021/05/15 03:32:40;;;;;;;22.33;20.03;;;;;;;;;;5074860;28;20317;-74
2021/05/15 03:35:07;;;;;;;22.63;20.23;;;;;;;;;;5074898;28;20446;-74
2021/05/15 03:37:34;;;;;;;22.58;20.35;;;;;;;;;;5073770;28;20452;-74
2021/05/15 03:40:02;;;;;;;25.92;19.73;;;;;;;;;;5074607;28;20236;-75
2021/05/15 03:42:28;;;;;;;21.48;19.17;;;;;;;;;;5075111;28;20263;-75
2021/05/15 03:44:55;;;;;;;23.87;20.23;;;;;;;;;;5074417;28;20198;-75
2021/05/15 03:47:22;;;;;;;21.17;18.98;;;;;;;;;;5074328;28;20456;-74
2021/05/15 03:49:48;;;;;;;26.20;20.00;;;;;;;;;;5074607;28;20269;-75
2021/05/15 03:52:15;;;;;;;26.58;20.35;;;;;;;;;;5074526;28;20220;-74
2021/05/15 03:54:42;;;;;;;20.95;18.70;;;;;;;;;;5074250;28;20212;-74
2021/05/15 03:57:09;;;;;;;20.80;18.03;;;;;;;;;;5074527;28;20643;-74
2021/05/15 03:59:36;;;;;;;19.67;17.67;;;;;;;;;;5074638;28;20531;-75
2021/05/15 04:02:03;;;;;;;20.63;18.33;;;;;;;;;;5074373;28;20458;-74
2021/05/15 04:04:29;;;;;;;20.83;18.63;;;;;;;;;;5074401;28;20470;-74
2021/05/15 04:06:56;;;;;;;22.05;19.75;;;;;;;;;;5073971;28;20200;-74
2021/05/15 04:09:23;;;;;;;20.23;18.13;;;;;;;;;;5073957;28;20655;-74
2021/05/15 04:11:50;;;;;;;19.03;17.03;;;;;;;;;;5074157;28;20476;-74
2021/05/15 04:14:27;;;;;;;19.05;17.15;;;;;;;;;;5074143;28;20513;-75
2021/05/15 04:17:13;;;;;;;20.98;17.63;;;;;;;;;;5074626;28;20196;-74
2021/05/15 04:19:39;;;;;;;20.65;18.10;;;;;;;;;;5074130;28;20519;-74
2021/05/15 04:22:06;;;;;;;18.25;16.23;;;;;;;;;;5074025;28;20202;-74
2021/05/15 04:24:33;;;;;;;20.27;18.23;;;;;;;;;;5073943;28;20201;-74
2021/05/15 04:27:03;;;;;;;19.67;17.53;;;;;;;;;;5073904;28;20436;-73
2021/05/15 04:29:30;;;;;;;20.57;18.60;;;;;;;;;;5073123;28;20495;-74
2021/05/15 04:31:58;;;;;;;21.38;18.52;;;;;;;;;;5072424;28;20525;-74
2021/05/15 04:34:25;;;;;;;20.00;17.90;;;;;;;;;;5073451;28;20214;-74
2021/05/15 04:36:53;;;;;;;20.58;17.65;;;;;;;;;;5073402;28;20454;-73
2021/05/15 04:39:19;;;;;;;19.80;17.58;;;;;;;;;;5073609;28;20283;-74
2021/05/15 04:41:46;;;;;;;23.65;18.77;;;;;;;;;;5073478;28;20203;-73
2021/05/15 04:44:13;;;;;;;21.50;19.43;;;;;;;;;;5073780;28;20190;-74
2021/05/15 04:46:41;;;;;;;18.40;16.42;;;;;;;;;;5073416;28;20439;-74
2021/05/15 04:49:07;;;;;;;20.48;18.45;;;;;;;;;;5073736;28;20198;-74
2021/05/15 04:51:34;;;;;;;20.05;18.05;;;;;;;;;;5073612;28;20189;-74
2021/05/15 04:54:02;;;;;;;21.20;18.33;;;;;;;;;;5073789;28;20203;-73
2021/05/15 04:56:29;;;;;;;17.92;16.10;;;;;;;;;;5073539;28;20493;-74
2021/05/15 04:58:56;;;;;;;18.93;16.97;;;;;;;;;;5073126;28;20201;-73
2021/05/15 05:01:22;;;;;;;20.13;18.03;;;;;;;;;;5072901;28;20447;-74
2021/05/15 05:03:50;;;;;;;20.02;17.85;;;;;;;;;;5073452;28;20942;-73
2021/05/15 05:06:17;;;;;;;19.77;17.47;;;;;;;;;;5073582;28;20658;-73
2021/05/15 05:08:43;;;;;;;19.02;17.13;;;;;;;;;;5073176;28;20450;-74
2021/05/15 05:11:10;;;;;;;17.45;15.75;;;;;;;;;;5073450;28;20205;-72
2021/05/15 05:13:37;;;;;;;19.67;16.55;;;;;;;;;;5073672;28;20743;-73
2021/05/15 05:16:04;;;;;;;19.10;16.67;;;;;;;;;;5073574;28;20199;-73
2021/05/15 05:18:31;;;;;;;16.55;14.85;;;;;;;;;;5073014;28;20471;-74
2021/05/15 05:21:00;;;;;;;17.33;15.53;;;;;;;;;;5072858;28;20648;-73
2021/05/15 05:23:27;;;;;;;16.90;15.17;;;;;;;;;;5072905;28;20458;-74
2021/05/15 05:25:54;;;;;;;17.45;14.18;;;;;;;;;;5072956;28;20452;-73
2021/05/15 05:28:24;;;;;;;17.30;15.05;;;;;;;;;;5072865;28;20247;-74
2021/05/15 05:30:51;;;;;;;17.38;15.07;;;;;;;;;;5072373;28;20743;-74
2021/05/15 05:33:18;;;;;;;16.58;14.55;;;;;;;;;;5072977;28;20309;-74
2021/05/15 05:35:45;;;;;;;15.25;13.70;;;;;;;;;;5073834;28;20571;-73
2021/05/15 05:38:12;;;;;;;26.75;19.90;;;;;;;;;;5073001;28;20219;-74
2021/05/15 05:40:39;;;;;;;16.67;13.27;;;;;;;;;;5072821;28;20291;-73
2021/05/15 05:43:06;;;;;;;14.20;12.47;;;;;;;;;;5072761;28;20452;-73
2021/05/15 05:45:33;;;;;;;12.60;11.40;;;;;;;;;;5073431;28;20787;-73
2021/05/15 05:48:00;;;;;;;13.70;12.30;;;;;;;;;;5073102;28;20431;-74
2021/05/15 05:50:26;;;;;;;15.70;12.10;;;;;;;;;;5073073;28;20438;-74
2021/05/15 05:52:55;;;;;;;11.90;10.80;;;;;;;;;;5073036;28;20621;-74
2021/05/15 05:55:23;;;;;;;12.17;10.87;;;;;;;;;;5072694;28;20934;-74
2021/05/15 05:57:49;;;;;;;10.55;9.45;;;;;;;;;;5072845;28;20531;-74
2021/05/15 06:00:16;;;;;;;11.17;9.93;;;;;;;;;;5072774;28;20289;-74
2021/05/15 06:02:43;;;;;;;11.33;10.33;;;;;;;;;;5076750;28;20447;-74
2021/05/15 06:05:11;;;;;;;11.37;10.03;;;;;;;;;;5076742;28;20444;-74
2021/05/15 06:07:37;;;;;;;12.10;9.90;;;;;;;;;;5076309;28;20955;-75
2021/05/15 06:10:04;;;;;;;11.17;8.90;;;;;;;;;;5076244;28;20952;-75
2021/05/15 06:12:32;;;;;;;10.80;9.77;;;;;;;;;;5076576;28;20479;-74
2021/05/15 06:15:00;;;;;;;10.30;9.40;;;;;;;;;;5076426;28;20439;-74
2021/05/15 06:17:27;;;;;;;9.93;8.93;;;;;;;;;;5076651;28;20789;-75
2021/05/15 06:19:54;;;;;;;10.07;8.87;;;;;;;;;;5076207;28;20447;-74
2021/05/15 06:22:20;;;;;;;10.77;9.50;;;;;;;;;;5076408;28;20476;-74
2021/05/15 06:24:47;;;;;;;11.47;8.90;;;;;;;;;;5075971;28;20915;-74
2021/05/15 06:27:14;;;;;;;10.00;9.00;;;;;;;;;;5075951;28;20440;-74
2021/05/15 06:29:41;;;;;;;10.00;9.00;;;;;;;;;;5076199;28;20494;-73
2021/05/15 06:32:09;;;;;;;11.03;9.20;;;;;;;;;;5076400;28;20905;-73
2021/05/15 06:34:36;;;;;;;8.53;7.83;;;;;;;;;;5076128;28;20530;-73
2021/05/15 06:37:03;;;;;;;8.40;7.60;;;;;;;;;;5076127;28;20440;-73
2021/05/15 06:39:30;;;;;;;14.30;9.90;;;;;;;;;;5075635;28;20504;-74
2021/05/15 06:41:56;;;;;;;11.80;8.83;;;;;;;;;;5075893;28;20447;-74
2021/05/15 06:44:23;;;;;;;9.83;8.73;;;;;;;;;;5076052;28;20475;-74
2021/05/15 06:46:51;;;;;;;8.90;8.10;;;;;;;;;;5075425;28;20531;-74
2021/05/15 06:49:17;;;;;;;9.93;8.93;;;;;;;;;;5076124;28;20439;-74
2021/05/15 06:51:44;;;;;;;10.33;9.43;;;;;;;;;;5075751;28;20957;-74
2021/05/15 06:54:11;;;;;;;11.80;9.30;;;;;;;;;;5075920;28;20440;-74
2021/05/15 06:56:38;;;;;;;11.60;8.77;;;;;;;;;;5075936;28;20531;-74
2021/05/15 06:59:04;;;;;;;9.67;8.80;;;;;;;;;;5075328;28;20539;-74
2021/05/15 07:01:31;;;;;;;9.20;8.37;;;;;;;;;;5076153;28;20938;-73
2021/05/15 07:03:59;;;;;;;9.23;8.37;;;;;;;;;;5076173;28;20527;-73
2021/05/15 07:06:25;;;;;;;10.13;9.23;;;;;;;;;;5075758;28;20495;-73
2021/05/15 07:08:52;;;;;;;9.60;8.70;;;;;;;;;;5076077;28;20475;-73
2021/05/15 07:11:19;;;;;;;14.13;11.20;;;;;;;;;;5075396;28;20535;-74
2021/05/15 07:13:46;;;;;;;12.47;10.00;;;;;;;;;;5073780;28;20480;-70
2021/05/15 07:16:13;;;;;;;10.80;9.57;;;;;;;;;;5075082;28;20440;-74
2021/05/15 07:18:39;;;;;;;10.97;9.87;;;;;;;;;;5074711;28;20446;-74
2021/05/15 07:21:07;;;;;;;9.60;8.50;;;;;;;;;;5075239;28;20440;-74
2021/05/15 07:23:34;;;;;;;9.67;8.87;;;;;;;;;;5075086;28;20451;-74
2021/05/15 07:26:00;;;;;;;7.83;7.13;;;;;;;;;;5075296;28;20531;-73
2021/05/15 07:28:30;;;;;;;7.63;6.93;;;;;;;;;;5075031;28;20444;-74
2021/05/15 07:30:56;;;;;;;8.20;7.40;;;;;;;;;;5075220;28;20469;-74
2021/05/15 07:33:23;;;;;;;8.30;7.60;;;;;;;;;;5075288;28;20916;-73
2021/05/15 07:35:50;;;;;;;7.33;6.63;;;;;;;;;;5075046;28;20478;-73
2021/05/15 07:38:18;;;;;;;7.33;6.73;;;;;;;;;;5074617;28;20909;-73
2021/05/15 07:40:45;;;;;;;7.67;6.97;;;;;;;;;;5075026;28;20554;-74
2021/05/15 07:43:12;;;;;;;7.67;6.97;;;;;;;;;;5074647;28;20523;-75
2021/05/15 07:45:39;;;;;;;11.13;5.90;;;;;;;;;;5074383;28;20461;-74
2021/05/15 07:48:06;;;;;;;5.90;5.30;;;;;;;;;;5074168;28;20959;-74
2021/05/15 07:50:33;;;;;;;5.18;4.78;;;;;;;;;;5075084;28;20448;-74
2021/05/15 07:52:59;;;;;;;5.67;5.13;;;;;;;;;;5074446;28;20225;-75
2021/05/15 07:55:27;;;;;;;7.43;6.10;;;;;;;;;;5074674;28;20451;-74
2021/05/15 07:57:54;;;;;;;6.93;5.63;;;;;;;;;;5074533;28;20553;-75
2021/05/15 08:00:21;;;;;;;6.27;5.67;;;;;;;;;;5074519;28;20544;-74
2021/05/15 08:02:48;;;;;;;5.47;5.00;;;;;;;;;;5074435;28;20448;-74
2021/05/15 08:05:14;;;;;;;5.32;4.65;;;;;;;;;;5075115;28;20463;-74
2021/05/15 08:07:41;;;;;;;5.27;4.53;;;;;;;;;;5073772;28;20251;-74
2021/05/15 08:10:09;;;;;;;5.90;4.90;;;;;;;;;;5074268;28;20498;-74
2021/05/15 08:12:37;;;;;;;5.80;5.30;;;;;;;;;;5074742;28;20579;-74
2021/05/15 08:15:05;;;;;;;6.47;5.60;;;;;;;;;;5075901;28;20447;-74
2021/05/15 08:17:33;;;;;;;7.40;6.70;;;;;;;;;;5073796;28;20475;-73
2021/05/15 08:20:00;;;;;;;8.23;7.53;;;;;;;;;;5073815;28;20472;-75
2021/05/15 08:22:27;;;;;;;10.33;8.97;;;;;;;;;;5073794;28;20452;-74
2021/05/15 08:24:54;;;;;;;10.30;9.00;;;;;;;;;;5073205;28;20529;-74
2021/05/15 08:27:20;;;;;;;11.80;9.37;;;;;;;;;;5073810;28;20476;-73
2021/05/15 08:29:48;;;;;;;14.43;12.17;;;;;;;;;;5073564;28;20483;-75
2021/05/15 08:32:15;;;;;;;13.70;12.40;;;;;;;;;;5072998;28;21053;-74
2021/05/15 08:34:41;;;;;;;15.70;14.10;;;;;;;;;;5073703;28;20435;-73
2021/05/15 08:37:08;;;;;;;18.90;15.00;;;;;;;;;;5073993;28;20527;-74
2021/05/15 08:39:35;;;;;;;17.40;15.03;;;;;;;;;;5073842;28;20445;-75
2021/05/15 08:42:02;;;;;;;18.27;16.47;;;;;;;;;;5074094;28;20480;-75
2021/05/15 08:44:29;;;;;;;18.53;16.70;;;;;;;;;;5073353;28;20935;-75
2021/05/15 08:46:59;;;;;;;19.63;17.60;;;;;;;;;;5073917;28;20464;-74
2021/05/15 08:49:26;;;;;;;18.03;16.20;;;;;;;;;;5073366;28;20519;-74
2021/05/15 08:51:53;;;;;;;18.30;16.50;;;;;;;;;;5073481;28;20468;-74
2021/05/15 08:54:21;;;;;;;20.87;18.70;;;;;;;;;;5073799;28;20451;-74
2021/05/15 08:56:49;;;;;;;19.93;17.93;;;;;;;;;;5073782;28;20433;-74
2021/05/15 08:59:16;;;;;;;20.90;17.97;;;;;;;;;;5073603;28;20545;-74
2021/05/15 09:01:43;;;;;;;19.73;17.73;;;;;;;;;;5073450;28;20523;-74
2021/05/15 09:04:10;;;;;;;18.13;16.33;;;;;;;;;;5073526;28;20472;-73
2021/05/15 09:06:40;;;;;;;20.13;17.70;;;;;;;;;;5073153;28;20538;-75
2021/05/15 09:09:07;;;;;;;21.03;18.80;;;;;;;;;;5072863;28;20448;-75
2021/05/15 09:11:34;;;;;;;19.07;14.73;;;;;;;;;;5072580;28;20436;-74
2021/05/15 09:14:00;;;;;;;15.07;13.53;;;;;;;;;;5072968;28;20541;-75
2021/05/15 09:16:27;;;;;;;15.67;14.10;;;;;;;;;;5073247;28;20441;-75
2021/05/15 09:18:54;;;;;;;19.50;16.67;;;;;;;;;;5073430;28;20543;-74
2021/05/15 09:21:22;;;;;;;21.03;18.83;;;;;;;;;;5073812;28;20824;-74
2021/05/15 09:23:51;;;;;;;23.47;20.57;;;;;;;;;;5073116;28;20859;-74
2021/05/15 09:26:19;;;;;;;29.93;22.30;;;;;;;;;;5072819;28;20536;-75
2021/05/15 09:28:47;;;;;;;26.50;22.77;;;;;;;;;;5073193;28;20451;-75
2021/05/15 09:31:18;;;;;;;32.80;24.60;;;;;;;;;;5072828;28;20551;-74
2021/05/15 09:33:46;;;;;;;28.10;24.03;;;;;;;;;;5071530;28;20514;-75
2021/05/15 09:36:14;;;;;;;28.83;23.10;;;;;;;;;;5081884;28;20454;-74
2021/05/15 09:38:41;;;;;;;32.00;25.13;;;;;;;;;;5076274;28;20454;-74
2021/05/15 09:41:08;;;;;;;32.03;24.13;;;;;;;;;;5076134;28;20539;-74
2021/05/15 09:43:35;;;;;;;35.23;25.77;;;;;;;;;;5077405;28;20444;-74
2021/05/15 09:46:02;;;;;;;34.97;29.13;;;;;;;;;;5077421;28;20850;-75
2021/05/15 09:48:38;;;;;;;32.03;26.53;;;;;;;;;;5076495;28;20873;-74
2021/05/15 09:51:18;;;;;;;31.37;26.30;;;;;;;;;;5076672;28;20969;-74
2021/05/15 09:53:46;;;;;;;35.90;29.07;;;;;;;;;;5076555;28;20472;-74
2021/05/15 09:56:13;;;;;;;35.67;28.00;;;;;;;;;;5076495;28;20531;-74
2021/05/15 09:58:41;;;;;;;36.00;28.00;;;;;;;;;;5077278;28;20476;-74
2021/05/15 10:01:08;;;;;;;37.50;27.67;;;;;;;;;;5076749;28;20826;-74
2021/05/15 10:03:35;;;;;;;35.83;27.90;;;;;;;;;;5077368;28;20855;-74
2021/05/15 10:06:04;;;;;;;35.67;30.60;;;;;;;;;;5076755;28;20540;-74
2021/05/15 10:08:31;;;;;;;33.87;26.63;;;;;;;;;;5075938;28;20478;-75
2021/05/15 10:11:00;;;;;;;35.83;26.97;;;;;;;;;;5076076;28;20546;-75
2021/05/15 10:13:26;;;;;;;33.13;27.83;;;;;;;;;;5076267;28;20476;-75
2021/05/15 10:15:54;;;;;;;34.17;26.80;;;;;;;;;;5076448;28;20950;-75
2021/05/15 10:18:20;;;;;;;32.40;27.30;;;;;;;;;;5076470;28;20519;-74
2021/05/15 10:20:48;;;;;;;34.53;27.60;;;;;;;;;;5076420;28;20876;-75
2021/05/15 10:23:19;;;;;;;33.73;26.40;;;;;;;;;;5077030;28;20455;-75
2021/05/15 10:25:50;;;;;;;35.70;27.00;;;;;;;;;;5076060;28;20523;-75
2021/05/15 10:28:27;;;;;;;31.73;25.57;;;;;;;;;;5075978;28;20535;-74
2021/05/15 10:31:04;;;;;;;30.37;24.03;;;;;;;;;;5075925;28;20469;-74
2021/05/15 10:33:31;;;;;;;28.70;23.33;;;;;;;;;;5075616;28;20949;-75
2021/05/15 10:35:58;;;;;;;28.10;22.17;;;;;;;;;;5076088;28;20444;-74
2021/05/15 10:38:31;;;;;;;27.20;20.90;;;;;;;;;;5076010;28;20455;-75
2021/05/15 10:41:08;;;;;;;28.93;22.30;;;;;;;;;;5076384;28;20433;-75
2021/05/15 10:43:37;;;;;;;28.00;20.90;;;;;;;;;;5076114;28;20520;-74
2021/05/15 10:46:14;;;;;;;23.87;19.30;;;;;;;;;;5075680;28;20483;-75
2021/05/15 10:48:40;;;;;;;24.30;17.27;;;;;;;;;;5076245;28;20476;-75
2021/05/15 10:51:07;;;;;;;17.57;14.00;;;;;;;;;;5076668;28;20451;-75
2021/05/15 10:53:34;;;;;;;17.37;14.23;;;;;;;;;;5075614;28;20473;-73
2021/05/15 10:56:02;;;;;;;15.90;12.47;;;;;;;;;;5076133;28;20437;-74
2021/05/15 10:58:40;;;;;;;15.53;13.17;;;;;;;;;;5075654;28;20444;-74
2021/05/15 11:01:11;;;;;;;13.07;11.73;;;;;;;;;;5075368;28;20436;-74
2021/05/15 11:03:38;;;;;;;13.87;12.10;;;;;;;;;;5075756;28;20789;-74
2021/05/15 11:06:22;;;;;;;18.00;13.37;;;;;;;;;;5075002;28;20444;-74
2021/05/15 11:08:59;;;;;;;14.30;10.77;;;;;;;;;;5075384;28;20425;-74
2021/05/15 11:11:36;;;;;;;13.10;11.77;;;;;;;;;;5075303;28;20486;-74
2021/05/15 11:14:04;;;;;;;10.60;7.83;;;;;;;;;;5075612;28;20503;-75
2021/05/15 11:16:32;;;;;;;11.50;10.13;;;;;;;;;;5075500;28;20527;-74
2021/05/15 11:19:09;;;;;;;9.47;8.47;;;;;;;;;;5075058;28;20881;-77
2021/05/15 11:21:36;;;;;;;10.10;8.53;;;;;;;;;;5075276;28;20844;-74
2021/05/15 11:24:03;;;;;;;10.73;8.50;;;;;;;;;;5075282;28;20972;-74
2021/05/15 11:26:49;;;;;;;9.37;8.33;;;;;;;;;;5074823;28;20447;-74
2021/05/15 11:29:17;;;;;;;10.80;9.17;;;;;;;;;;5074818;28;21012;-74
2021/05/15 11:31:43;;;;;;;15.13;10.30;;;;;;;;;;5076172;28;20865;-74
2021/05/15 11:34:11;;;;;;;13.87;12.40;;;;;;;;;;5074936;28;20487;-74
2021/05/15 11:36:40;;;;;;;15.60;13.80;;;;;;;;;;5074683;28;20443;-74
2021/05/15 11:39:08;;;;;;;15.00;13.13;;;;;;;;;;5074866;28;20445;-74
2021/05/15 11:41:35;;;;;;;16.13;14.07;;;;;;;;;;5075148;28;20627;-74
2021/05/15 11:44:01;;;;;;;15.77;14.17;;;;;;;;;;5074564;28;20491;-74
2021/05/15 11:46:29;;;;;;;17.40;14.30;;;;;;;;;;5074963;28;20472;-75
2021/05/15 11:48:56;;;;;;;19.10;16.23;;;;;;;;;;5074770;28;20444;-74
2021/05/15 11:51:23;;;;;;;18.47;16.53;;;;;;;;;;5075139;28;20779;-74
2021/05/15 11:53:50;;;;;;;17.67;15.73;;;;;;;;;;5074373;28;20480;-74
2021/05/15 11:56:17;;;;;;;18.37;16.53;;;;;;;;;;5074278;28;20944;-75
2021/05/15 11:58:45;;;;;;;16.63;14.93;;;;;;;;;;5073546;28;20532;-75
2021/05/15 12:01:12;;;;;;;15.70;14.00;;;;;;;;;;5074561;28;20443;-75
2021/05/15 12:03:40;;;;;;;18.13;16.20;;;;;;;;;;5074012;28;20441;-75
2021/05/15 12:06:11;;;;;;;16.50;14.90;;;;;;;;;;5074731;28;20845;-75
2021/05/15 12:08:38;;;;;;;17.60;15.80;;;;;;;;;;5074037;28;20429;-75
2021/05/15 12:11:05;;;;;;;18.33;16.63;;;;;;;;;;5074508;28;20469;-75
2021/05/15 12:13:32;;;;;;;17.40;15.60;;;;;;;;;;5074273;28;20503;-75
2021/05/15 12:15:58;;;;;;;17.00;14.57;;;;;;;;;;5074509;28;20438;-75
2021/05/15 12:18:26;;;;;;;18.50;16.20;;;;;;;;;;5074604;28;20437;-75
2021/05/15 12:20:54;;;;;;;18.23;16.33;;;;;;;;;;5074066;28;20491;-74
2021/05/15 12:23:22;;;;;;;18.43;16.67;;;;;;;;;;5074311;28;20445;-74
2021/05/15 12:25:56;;;;;;;16.13;14.53;;;;;;;;;;5074417;28;20440;-74
2021/05/15 12:28:24;;;;;;;17.50;15.70;;;;;;;;;;5073938;28;20434;-74
2021/05/15 12:30:51;;;;;;;16.73;14.97;;;;;;;;;;5074030;28;20470;-74
2021/05/15 12:33:19;;;;;;;16.57;14.80;;;;;;;;;;5073905;28;20499;-74
2021/05/15 12:35:58;;;;;;;16.00;14.30;;;;;;;;;;5073937;28;20458;-74
2021/05/15 12:38:25;;;;;;;16.27;14.60;;;;;;;;;;5073794;28;20489;-74
2021/05/15 12:40:52;;;;;;;16.03;14.47;;;;;;;;;;5074139;28;20589;-74
2021/05/15 12:43:22;;;;;;;15.07;13.47;;;;;;;;;;5074192;28;20866;-74
2021/05/15 12:45:51;;;;;;;15.63;14.20;;;;;;;;;;5073860;28;20535;-74
2021/05/15 12:48:35;;;;;;;12.50;11.20;;;;;;;;;;5073604;28;20470;-74
2021/05/15 12:51:03;;;;;;;14.57;13.17;;;;;;;;;;5073549;28;20432;-74
2021/05/15 12:53:29;;;;;;;14.87;13.33;;;;;;;;;;5073368;28;20476;-74
2021/05/15 12:55:57;;;;;;;15.53;14.03;;;;;;;;;;5073957;28;20440;-74
2021/05/15 12:58:24;;;;;;;13.13;11.93;;;;;;;;;;5073428;28;20440;-74
2021/05/15 13:00:58;;;;;;;15.23;13.37;;;;;;;;;;5073952;28;20481;-74
2021/05/15 13:03:26;;;;;;;6.20;5.13;;;;;;;;;;5074329;28;20524;-74
2021/05/15 13:05:53;;;;;;;3.10;2.90;;;;;;;;;;5072554;28;20456;-74
2021/05/15 13:08:28;;;;;;;2.53;2.33;;;;;;;;;;5073622;28;20536;-74
2021/05/15 13:10:55;;;;;;;6.53;2.63;;;;;;;;;;5073284;28;20444;-75
2021/05/15 13:13:22;;;;;;;4.97;2.47;;;;;;;;;;5073316;28;20474;-75
2021/05/15 13:15:48;;;;;;;3.10;2.20;;;;;;;;;;5073304;28;20436;-75
2021/05/15 13:18:17;;;;;;;2.73;2.53;;;;;;;;;;5072828;28;20943;-76
2021/05/15 13:20:44;;;;;;;2.43;2.33;;;;;;;;;;5073728;28;20444;-76
2021/05/15 13:23:17;;;;;;;3.87;3.57;;;;;;;;;;5073499;28;20450;-77
2021/05/15 13:25:44;;;;;;;2.73;2.53;;;;;;;;;;5073132;28;20434;-77
2021/05/15 13:28:11;;;;;;;3.37;3.07;;;;;;;;;;5073045;28;20437;-76
2021/05/15 13:30:39;;;;;;;3.00;2.80;;;;;;;;;;5072987;28;20499;-75
2021/05/15 13:33:05;;;;;;;3.13;2.93;;;;;;;;;;5073212;28;20549;-77
2021/05/15 13:35:32;;;;;;;2.93;2.73;;;;;;;;;;5073083;28;20593;-75
2021/05/15 13:37:59;;;;;;;3.43;3.10;;;;;;;;;;5072930;28;20448;-76
2021/05/15 13:40:25;;;;;;;3.70;3.40;;;;;;;;;;5073320;28;20447;-76
2021/05/15 13:42:53;;;;;;;6.80;3.00;;;;;;;;;;5073175;28;20805;-74
2021/05/15 13:45:20;;;;;;;3.30;2.50;;;;;;;;;;5072973;28;20532;-76
2021/05/15 13:47:50;;;;;;;2.60;2.40;;;;;;;;;;5073605;28;20478;-75
2021/05/15 13:50:17;;;;;;;2.90;2.70;;;;;;;;;;5072856;28;20488;-75
2021/05/15 13:52:44;;;;;;;3.07;2.70;;;;;;;;;;5073049;28;20559;-75
2021/05/15 13:55:11;;;;;;;7.00;3.30;;;;;;;;;;5072757;28;20484;-75
2021/05/15 13:57:38;;;;;;;2.70;2.50;;;;;;;;;;5073038;28;20539;-76
2021/05/15 14:00:07;;;;;;;2.43;2.23;;;;;;;;;;5073255;28;20456;-75
2021/05/15 14:02:34;;;;;;;3.00;2.60;;;;;;;;;;5072984;28;20493;-75
2021/05/15 14:05:01;;;;;;;2.37;2.20;;;;;;;;;;5072442;28;20445;-75
2021/05/15 14:07:29;;;;;;;2.60;2.40;;;;;;;;;;5072778;28;20535;-75
2021/05/15 14:09:56;;;;;;;2.50;2.30;;;;;;;;;;5072557;28;20460;-75
2021/05/15 14:12:23;;;;;;;4.33;2.70;;;;;;;;;;5072872;28;20490;-74
2021/05/15 14:14:50;;;;;;;3.33;2.33;;;;;;;;;;5073250;28;20533;-75
2021/05/15 14:17:18;;;;;;;3.10;2.33;;;;;;;;;;5073372;28;20437;-75
2021/05/15 14:19:45;;;;;;;2.33;2.20;;;;;;;;;;5072995;28;20437;-74
2021/05/15 14:22:12;;;;;;;2.50;2.30;;;;;;;;;;5074149;28;20847;-74
2021/05/15 14:24:39;;;;;;;2.10;2.00;;;;;;;;;;5076385;28;20803;-74
2021/05/15 14:27:06;;;;;;;2.80;2.60;;;;;;;;;;5076309;28;21008;-74